»·PEaware :: N8EY KPOC-KBFL

N8EY :: KPOC-KBFL

FLIGHT INFORMATION

Flight Status: Arrived
Operator: Privately registered:
United States
More flights under this callsign
Pilot: Russel M. (42411)
Aircraft: BEECH AIRCRAFT BARON
(BE58)
More flights by this aircraft type
Origin: KPOC Brackett
United States
Destination: KBFL Meadows
United States
More flights between these airports :: More routes between these airports
Route: PRADO V16 PDZ POM V197 EHF
File this flight plan on PilotEdge
Remarks:
Altitude:
(Current/Filed)
12,000ft
Speed:
(Current/Filed)
170kts
Departed: 28-Sep-23 06:34 PM
Arrived: 28-Sep-23 07:27 PM
Distance/Time
Traveled:
102nm/0:53
Distance/Time
To Go:
Arrived

Flight Plot

Page will automatically refresh every two minutes.

Flight plan parsing failed; only flown route is shown


Map Options




Map Legend


Flown Route
Filed Route
Departure Airport
Arrival Airport
Navaid (VOR, NDB)
Fix

Horizontal Profiles

Position Reports

Time Latitude Longitude Heading Altitude Ground
Speed
28-Sep-23 18:08 34.093206 -117.785885 106 981ft 0kts
28-Sep-23 18:09 34.093206 -117.785885 106 981ft 0kts
28-Sep-23 18:10 34.093206 -117.785885 106 981ft 0kts
28-Sep-23 18:11 34.093206 -117.785885 106 981ft 0kts
28-Sep-23 18:12 34.093206 -117.785885 106 981ft 0kts
28-Sep-23 18:13 34.093206 -117.785885 106 981ft 0kts
28-Sep-23 18:14 34.093206 -117.785885 106 981ft 0kts
28-Sep-23 18:15 34.093206 -117.785885 106 981ft 0kts
28-Sep-23 18:16 34.093206 -117.785885 106 981ft 0kts
28-Sep-23 18:17 34.093206 -117.785885 106 981ft 0kts
28-Sep-23 18:18 34.093206 -117.785885 106 981ft 0kts
28-Sep-23 18:19 34.093206 -117.785885 106 981ft 0kts
28-Sep-23 18:20 34.093206 -117.785885 106 981ft 0kts
28-Sep-23 18:21 34.093206 -117.785885 106 981ft 0kts
28-Sep-23 18:22 34.093206 -117.785885 106 981ft 0kts
28-Sep-23 18:23 34.093206 -117.785885 106 981ft 0kts
28-Sep-23 18:23 34.093206 -117.785885 106 981ft 0kts
28-Sep-23 18:25 34.093206 -117.785885 106 981ft 0kts
28-Sep-23 18:26 34.093206 -117.785885 106 981ft 0kts
28-Sep-23 18:27 34.093206 -117.785885 106 981ft 0kts
28-Sep-23 18:27 34.093206 -117.785885 106 981ft 0kts
28-Sep-23 18:28 34.092621 -117.783255 92 991ft 15kts
28-Sep-23 18:29 34.092389 -117.777907 91 1002ft 10kts
28-Sep-23 18:31 34.092427 -117.775202 119 1005ft 0kts
28-Sep-23 18:32 34.092295 -117.774881 126 1006ft 0kts
28-Sep-23 18:32 34.092295 -117.774881 126 1006ft 0kts
28-Sep-23 18:33 34.091897 -117.777090 273 1003ft 61kts
28-Sep-23 18:34 34.089262 -117.814720 218 1942ft 129kts
28-Sep-23 18:35 34.060254 -117.796435 147 3292ft 132kts
28-Sep-23 18:37 34.019650 -117.784538 178 4501ft 147kts
28-Sep-23 18:37 33.984580 -117.783540 178 5100ft 155kts
28-Sep-23 18:38 33.941126 -117.782394 178 5800ft 156kts
28-Sep-23 18:39 33.916147 -117.756545 63 6496ft 152kts
28-Sep-23 18:40 33.935807 -117.711599 61 7193ft 151kts
28-Sep-23 18:41 33.968685 -117.706634 326 7892ft 146kts
28-Sep-23 18:42 34.002371 -117.732784 327 8582ft 143kts
28-Sep-23 18:43 34.035485 -117.757947 327 9271ft 138kts
28-Sep-23 18:44 34.067855 -117.781587 331 9959ft 133kts
28-Sep-23 18:45 34.104998 -117.801700 337 10055ft 161kts
28-Sep-23 18:46 34.146921 -117.822402 337 10328ft 155kts
28-Sep-23 18:47 34.184289 -117.840766 337 10989ft 137kts
28-Sep-23 18:48 34.217890 -117.857257 337 11660ft 124kts
28-Sep-23 18:49 34.249218 -117.872641 337 12067ft 136kts
28-Sep-23 18:50 34.290262 -117.892955 337 12055ft 176kts
28-Sep-23 18:51 34.337221 -117.916135 337 12050ft 187kts
28-Sep-23 18:52 34.385850 -117.940142 337 12049ft 189kts
28-Sep-23 18:53 34.434806 -117.964297 337 12048ft 190kts
28-Sep-23 18:54 34.483787 -117.988460 337 12048ft 190kts
28-Sep-23 18:55 34.532643 -118.012557 337 12048ft 190kts
28-Sep-23 18:56 34.581790 -118.036789 337 12048ft 190kts
28-Sep-23 18:57 34.629820 -118.063417 321 12035ft 191kts
28-Sep-23 18:58 34.666160 -118.110143 313 12048ft 190kts
28-Sep-23 18:59 34.702159 -118.157181 313 12048ft 190kts
28-Sep-23 19:00 34.738236 -118.204315 313 12048ft 190kts
28-Sep-23 19:01 34.774361 -118.251504 313 12048ft 190kts
28-Sep-23 19:02 34.810409 -118.298584 313 12073ft 189kts
28-Sep-23 19:03 34.846366 -118.345536 313 12076ft 190kts
28-Sep-23 19:04 34.882506 -118.392721 313 12076ft 190kts
28-Sep-23 19:05 34.918701 -118.439959 313 12076ft 190kts
28-Sep-23 19:06 34.955964 -118.488606 313 11722ft 201kts
28-Sep-23 19:07 34.994721 -118.539094 313 11137ft 203kts
28-Sep-23 19:08 35.033382 -118.588611 318 10483ft 200kts
28-Sep-23 19:09 35.074233 -118.633375 318 10095ft 190kts
28-Sep-23 19:10 35.111958 -118.674687 317 10096ft 175kts
28-Sep-23 19:11 35.147172 -118.713234 318 10098ft 166kts
28-Sep-23 19:12 35.180436 -118.750950 316 10099ft 161kts
28-Sep-23 19:13 35.213134 -118.789250 316 9470ft 161kts
28-Sep-23 19:14 35.245288 -118.827044 316 8671ft 160kts
28-Sep-23 19:15 35.275632 -118.866838 314 7871ft 159kts
28-Sep-23 19:16 35.306825 -118.905060 315 7075ft 159kts
28-Sep-23 19:17 35.339061 -118.941778 320 6306ft 156kts
28-Sep-23 19:18 35.342898 -118.980728 193 5630ft 153kts
28-Sep-23 19:19 35.310553 -118.951227 134 5019ft 151kts
28-Sep-23 19:20 35.296865 -118.910392 41 4367ft 151kts
28-Sep-23 19:21 35.328754 -118.931776 307 3690ft 152kts
28-Sep-23 19:22 35.355945 -118.966259 321 2664ft 131kts
28-Sep-23 19:23 35.380996 -118.993812 314 1833ft 109kts
28-Sep-23 19:24 35.401786 -119.018276 316 1307ft 101kts
28-Sep-23 19:25 35.421738 -119.041757 319 793ft 95kts
28-Sep-23 19:26 35.434984 -119.057558 318 487ft 4kts
28-Sep-23 19:27 35.435749 -119.056254 135 492ft 24kts
28-Sep-23 19:28 35.435533 -119.052969 356 501ft 0kts
28-Sep-23 19:29 35.435533 -119.052969 356 501ft 0kts
28-Sep-23 19:30 35.435533 -119.052969 356 501ft 0kts
28-Sep-23 19:31 35.435533 -119.052969 356 501ft 0kts

Navigation Log

Ident Type
Flight plan parsing failed, navigation log unavailable